Time;durP1;ratioP1;P1;durP2;ratioP2;P2;SDS_P1;SDS_P2;PMS_P1;PMS_P2;Temp;Humidity;BMP_temperature;BMP_pressure;BME280_temperature;BME280_humidity;BME280_pressure;Samples;Min_cycle;Max_cycle;Signal;HPM_P1;HPM_P2
2022/09/06 00:01:57;;;;;;;0.60;0.60;;;18.80;99.90;18.90;101348.00;;;;5094553;28;20231;-69
2022/09/06 00:04:24;;;;;;;1.23;1.13;;;18.70;99.90;18.70;101348.00;;;;5096377;28;20271;-69
2022/09/06 00:06:59;;;;;;;0.50;0.50;;;18.60;99.90;18.90;101351.00;;;;5094429;28;20174;-70
2022/09/06 00:09:25;;;;;;;0.40;0.40;;;18.60;99.90;18.90;101350.00;;;;5094356;28;20187;-70
2022/09/06 00:11:51;;;;;;;0.50;0.50;;;18.50;99.90;19.50;101349.00;;;;5076919;28;20213;-70
2022/09/06 00:14:22;;;;;;;0.50;0.50;;;18.70;99.90;19.70;101339.00;;;;5077801;28;20641;-70
2022/09/06 00:17:25;;;;;;;0.60;0.60;;;18.90;99.90;19.90;101322.00;;;;5094913;28;20201;-70
2022/09/06 00:20:11;;;;;;;1.00;1.00;;;19.10;99.90;19.80;101331.00;;;;5094976;28;20197;-71
2022/09/06 00:23:18;;;;;;;0.50;0.50;;;19.00;99.90;19.50;101334.00;;;;5095140;28;20640;-70
2022/09/06 00:25:53;;;;;;;0.60;0.60;;;19.00;99.90;19.80;101364.00;;;;5093992;28;20650;-70
2022/09/06 00:28:20;;;;;;;0.50;0.50;;;19.00;99.90;19.70;101370.00;;;;5077987;28;20585;-71
2022/09/06 00:30:48;;;;;;;0.50;0.50;;;19.00;99.90;19.80;101350.00;;;;5094091;28;20259;-71
2022/09/06 00:33:43;;;;;;;0.80;0.80;;;19.00;99.90;19.80;101359.00;;;;5093769;28;20691;-70
2022/09/06 00:36:56;;;;;;;0.60;0.60;;;19.10;99.90;19.90;101361.00;;;;5093306;28;20161;-70
2022/09/06 00:39:56;;;;;;;2.27;2.17;;;19.10;99.90;19.70;101335.00;;;;5094117;28;20180;-70
2022/09/06 00:43:01;;;;;;;0.60;0.60;;;19.00;99.90;19.40;101351.00;;;;5093733;28;20177;-70
2022/09/06 00:46:04;;;;;;;0.60;0.60;;;18.90;99.90;19.80;101316.00;;;;5061985;28;20201;-70
2022/09/06 00:48:38;;;;;;;0.50;0.50;;;19.00;99.90;19.40;101338.00;;;;5093614;28;20181;-70
2022/09/06 00:51:40;;;;;;;0.60;0.60;;;18.80;99.90;19.50;101338.00;;;;5076591;28;20278;-70
2022/09/06 00:54:50;;;;;;;0.60;0.60;;;18.80;99.90;19.60;101337.00;;;;5076939;28;20169;-70
2022/09/06 00:57:20;;;;;;;0.70;0.70;;;18.80;99.90;19.70;101336.00;;;;5078940;28;20264;-70
2022/09/06 01:00:06;;;;;;;0.60;0.60;;;18.90;99.90;19.10;101335.00;;;;5077095;28;20216;-69
2022/09/06 01:02:37;;;;;;;0.60;0.60;;;18.80;99.90;19.50;101308.00;;;;5076696;28;20200;-70
2022/09/06 01:05:51;;;;;;;0.60;0.60;;;18.70;99.90;19.50;101341.00;;;;5094664;28;20271;-70
2022/09/06 01:08:40;;;;;;;0.70;0.70;;;18.70;99.90;19.60;101330.00;;;;5075395;28;20296;-69
2022/09/06 01:11:28;;;;;;;0.80;0.80;;;18.70;99.90;19.70;101328.00;;;;5092611;28;20630;-69
2022/09/06 01:14:26;;;;;;;0.70;0.70;;;18.80;99.90;19.70;101322.00;;;;5092470;28;20206;-69
2022/09/06 01:17:44;;;;;;;0.67;0.67;;;18.80;99.90;19.30;101323.00;;;;5093003;28;20231;-69
2022/09/06 01:20:19;;;;;;;0.50;0.50;;;18.80;99.90;19.50;101326.00;;;;5011543;28;20230;-69
2022/09/06 01:22:53;;;;;;;0.60;0.60;;;18.70;99.90;19.60;101328.00;;;;4995486;28;20191;-70
2022/09/06 01:25:58;;;;;;;0.60;0.60;;;18.70;99.90;19.30;101331.00;;;;4995206;28;20292;-69
2022/09/06 01:32:42;;;;;;;0.70;0.70;;;18.50;99.90;19.10;101341.00;;;;5089131;28;20821;-70
2022/09/06 01:35:40;;;;;;;0.60;0.60;;;18.50;99.90;19.10;101325.00;;;;5093747;28;20194;-70
2022/09/06 01:39:06;;;;;;;0.60;0.60;;;18.40;99.90;19.60;101332.00;;;;5092681;28;20180;-70
2022/09/06 01:42:12;;;;;;;0.60;0.60;;;18.60;99.90;20.10;101321.00;;;;5080628;28;20187;-70
2022/09/06 01:46:08;;;;;;;0.60;0.60;;;18.80;99.90;19.70;101326.00;;;;5092289;28;20543;-69
2022/09/06 01:49:08;;;;;;;0.60;0.60;;;18.80;99.90;19.20;101319.00;;;;5031089;28;20276;-69
2022/09/06 01:51:57;;;;;;;0.70;0.70;;;18.60;99.90;19.30;101313.00;;;;5092533;28;20213;-69
2022/09/06 01:55:11;;;;;;;14.53;10.90;;;18.50;99.90;18.90;101326.00;;;;5092283;28;20189;-70
2022/09/06 01:57:55;;;;;;;0.60;0.60;;;18.40;99.90;19.00;101323.00;;;;5075290;28;20693;-69
2022/09/06 02:01:00;;;;;;;0.50;0.50;;;18.30;99.90;19.10;101332.00;;;;5093696;28;20183;-69
2022/09/06 02:03:42;;;;;;;0.50;0.50;;;18.30;99.90;19.30;101328.00;;;;5093450;28;20245;-69
2022/09/06 02:06:39;;;;;;;0.60;0.60;;;18.40;99.90;19.10;101335.00;;;;5092077;28;20181;-69
2022/09/06 02:09:17;;;;;;;0.63;0.63;;;18.50;99.90;18.90;101349.00;;;;5067339;28;20639;-69
2022/09/06 02:11:59;;;;;;;0.77;0.77;;;18.40;99.90;19.10;101345.00;;;;5091597;28;20303;-69
2022/09/06 02:14:34;;;;;;;0.60;0.60;;;18.40;99.90;19.60;101314.00;;;;5075454;28;20178;-69
2022/09/06 02:17:19;;;;;;;0.70;0.70;;;18.60;99.90;19.80;101335.00;;;;5092038;28;20181;-70
2022/09/06 02:19:58;;;;;;;1.33;1.33;;;18.80;99.90;19.90;101306.00;;;;5092204;28;20188;-70
2022/09/06 02:22:36;;;;;;;0.70;0.70;;;19.00;99.90;19.80;101333.00;;;;5092078;28;20186;-71
2022/09/06 02:25:08;;;;;;;0.50;0.50;;;18.90;99.90;19.40;101336.00;;;;5092347;28;20161;-71
2022/09/06 02:27:45;;;;;;;0.50;0.50;;;18.80;99.90;19.20;101321.00;;;;5075472;28;20544;-70
2022/09/06 02:30:12;;;;;;;0.47;0.47;;;18.70;99.90;19.20;101342.00;;;;5091764;28;20184;-70
2022/09/06 02:33:04;;;;;;;0.40;0.40;;;18.60;99.90;19.10;101346.00;;;;5091620;28;20275;-70
2022/09/06 02:35:32;;;;;;;0.60;0.60;;;18.50;99.90;19.20;101338.00;;;;5089767;28;20658;-69
2022/09/06 02:38:01;;;;;;;0.43;0.43;;;18.50;99.90;19.20;101343.00;;;;5112314;28;20184;-70
2022/09/06 02:40:29;;;;;;;0.40;0.40;;;18.50;99.90;18.90;101344.00;;;;5112509;28;20207;-70
2022/09/06 02:43:30;;;;;;;0.40;0.40;;;18.40;99.90;19.30;101322.00;;;;5095114;28;20177;-70
2022/09/06 02:46:14;;;;;;;0.50;0.50;;;18.40;99.90;19.20;101341.00;;;;5095747;28;20188;-70
2022/09/06 02:49:07;;;;;;;0.40;0.40;;;18.40;99.90;19.10;101328.00;;;;5095851;28;20222;-69
2022/09/06 02:51:57;;;;;;;0.70;0.70;;;18.40;99.90;19.30;101332.00;;;;5095600;28;20682;-69
2022/09/06 02:54:58;;;;;;;0.50;0.50;;;18.40;99.90;19.20;101302.00;;;;5095831;28;20176;-69
2022/09/06 02:57:49;;;;;;;0.40;0.40;;;18.40;99.90;19.30;101328.00;;;;5095083;28;20185;-69
2022/09/06 03:00:34;;;;;;;0.60;0.60;;;18.50;99.90;19.00;101324.00;;;;5112074;28;20176;-70
2022/09/06 03:03:00;;;;;;;0.87;0.73;;;18.40;99.90;18.90;101311.00;;;;5032202;22;20231;-68
2022/09/06 03:05:30;;;;;;;1.67;0.77;;;18.30;99.90;18.80;101318.00;;;;5001420;28;20580;-68
2022/09/06 03:07:58;;;;;;;0.63;0.63;;;18.30;99.90;19.50;101313.00;;;;4992146;28;20265;-68
2022/09/06 03:10:25;;;;;;;0.50;0.50;;;18.40;99.90;19.10;101302.00;;;;4993584;28;20640;-67
2022/09/06 03:12:51;;;;;;;0.73;0.73;;;18.40;99.90;19.10;101307.00;;;;4975705;28;20211;-68
2022/09/06 03:15:20;;;;;;;0.50;0.50;;;18.40;99.90;19.10;101284.00;;;;4991950;28;20627;-68
2022/09/06 03:17:46;;;;;;;0.50;0.50;;;18.40;99.90;19.20;101303.00;;;;4992163;28;20188;-68
2022/09/06 03:20:12;;;;;;;0.50;0.50;;;18.30;99.90;18.70;101300.00;;;;4995768;28;20241;-68
2022/09/06 03:22:41;;;;;;;0.63;0.63;;;18.20;99.90;18.70;101297.00;;;;4994784;28;20702;-68
2022/09/06 03:25:09;;;;;;;0.80;0.80;;;18.10;99.90;18.50;101306.00;;;;4995822;28;20263;-68
2022/09/06 03:27:37;;;;;;;0.40;0.40;;;18.00;99.90;18.40;101313.00;;;;4995890;28;20227;-68
2022/09/06 03:30:05;;;;;;;0.40;0.40;;;17.90;99.90;18.50;101303.00;;;;4979378;28;20184;-68
2022/09/06 03:32:33;;;;;;;0.97;0.97;;;17.90;99.90;18.40;101310.00;;;;4995460;28;20367;-67
2022/09/06 03:34:59;;;;;;;0.43;0.43;;;17.90;99.90;18.60;101307.00;;;;4979197;28;20673;-68
2022/09/06 03:37:27;;;;;;;0.40;0.40;;;18.00;99.90;18.70;101327.00;;;;4979086;28;20187;-69
2022/09/06 03:39:53;;;;;;;0.40;0.40;;;18.00;99.90;19.10;101320.00;;;;4995375;28;20219;-69
2022/09/06 03:42:24;;;;;;;0.40;0.40;;;18.20;99.90;19.10;101323.00;;;;4995711;28;20210;-69
2022/09/06 03:44:53;;;;;;;0.60;0.60;;;18.30;99.90;19.40;101314.00;;;;4995427;28;20184;-69
2022/09/06 03:47:24;;;;;;;0.50;0.50;;;18.50;99.90;19.40;101300.00;;;;4995131;28;20183;-69
2022/09/06 03:49:50;;;;;;;0.60;0.60;;;18.40;99.90;18.70;101301.00;;;;5011528;28;20549;-68
2022/09/06 03:52:16;;;;;;;0.40;0.40;;;18.30;99.90;18.40;101306.00;;;;4979151;28;20217;-69
2022/09/06 03:54:45;;;;;;;0.60;0.60;;;18.00;99.90;18.70;101312.00;;;;4995498;28;20194;-69
2022/09/06 03:57:10;;;;;;;0.50;0.50;;;18.10;99.90;18.50;101314.00;;;;4994952;28;20183;-69
2022/09/06 03:59:39;;;;;;;0.40;0.40;;;17.90;99.90;18.90;101313.00;;;;4996431;28;20183;-69
2022/09/06 04:02:10;;;;;;;0.50;0.50;;;18.00;99.90;19.10;101314.00;;;;4994646;28;20250;-69
2022/09/06 04:04:36;;;;;;;0.60;0.60;;;18.20;99.90;19.30;101308.00;;;;4995168;28;20183;-69
2022/09/06 04:07:02;;;;;;;0.50;0.50;;;18.30;99.90;19.50;101296.00;;;;4994945;28;20237;-70
2022/09/06 04:09:45;;;;;;;0.40;0.40;;;18.40;99.90;18.70;101272.00;;;;4994852;28;20219;-68
2022/09/06 04:12:33;;;;;;;0.40;0.40;;;18.20;99.90;19.00;101299.00;;;;4994820;28;20310;-68
2022/09/06 04:15:03;;;;;;;1.27;1.27;;;18.10;99.90;19.20;101289.00;;;;4996081;28;20179;-69
2022/09/06 04:17:30;;;;;;;0.40;0.40;;;18.30;99.90;18.80;101288.00;;;;4994582;28;20191;-69
2022/09/06 04:19:56;;;;;;;0.50;0.50;;;18.10;99.90;19.10;101296.00;;;;4994433;28;20185;-69
2022/09/06 04:22:25;;;;;;;0.50;0.50;;;18.10;99.90;19.00;101253.00;;;;4994227;28;20184;-69
2022/09/06 04:24:53;;;;;;;0.50;0.50;;;18.20;99.90;19.10;101247.00;;;;4993908;28;20181;-69
2022/09/06 04:27:42;;;;;;;0.73;0.73;;;18.20;99.90;18.90;101292.00;;;;4977621;28;20182;-69
2022/09/06 04:30:13;;;;;;;0.50;0.50;;;18.10;99.90;19.10;101276.00;;;;4977569;28;20187;-69
2022/09/06 04:32:41;;;;;;;8.40;1.17;;;18.20;99.90;18.80;101284.00;;;;4993179;28;20222;-69
2022/09/06 04:35:09;;;;;;;0.77;0.77;;;18.10;99.90;18.50;101277.00;;;;4993974;28;20188;-69
2022/09/06 04:37:35;;;;;;;0.50;0.50;;;17.90;99.90;18.70;101290.00;;;;4993506;28;20230;-69
2022/09/06 04:40:10;;;;;;;0.50;0.50;;;17.90;99.90;18.60;101291.00;;;;4974989;28;20227;-69
2022/09/06 04:42:44;;;;;;;2.40;1.03;;;17.90;99.90;18.90;101294.00;;;;4974877;28;20176;-69
2022/09/06 04:45:30;;;;;;;0.60;0.60;;;18.00;99.90;18.80;101294.00;;;;4974163;28;20199;-69
2022/09/06 04:47:57;;;;;;;0.50;0.50;;;18.00;99.90;18.60;101296.00;;;;4959996;28;20274;-69
2022/09/06 04:50:40;;;;;;;0.50;0.50;;;18.00;99.90;19.10;101299.00;;;;4974552;28;20176;-69
2022/09/06 04:53:11;;;;;;;0.50;0.50;;;18.00;99.90;19.30;101299.00;;;;4974599;28;20660;-69
2022/09/06 04:55:48;;;;;;;0.50;0.50;;;18.30;99.90;19.20;101284.00;;;;4958669;28;20519;-69
2022/09/06 04:58:17;;;;;;;0.60;0.60;;;18.30;99.90;19.30;101281.00;;;;4974191;28;20181;-68
2022/09/06 05:00:46;;;;;;;0.97;0.97;;;18.40;99.90;19.60;101287.00;;;;4973976;28;20184;-69
2022/09/06 05:03:14;;;;;;;0.60;0.60;;;18.50;99.90;19.30;101286.00;;;;4973946;28;20288;-69
2022/09/06 05:06:10;;;;;;;0.60;0.60;;;18.40;99.90;19.30;101291.00;;;;4980433;28;20188;-69
2022/09/06 05:08:42;;;;;;;0.80;0.80;;;18.30;99.90;19.20;101262.00;;;;4975451;28;20187;-69
2022/09/06 05:11:10;;;;;;;0.50;0.50;;;18.20;99.90;19.20;101278.00;;;;4974154;28;20181;-69
2022/09/06 05:13:39;;;;;;;0.60;0.60;;;18.30;99.90;19.40;101276.00;;;;4958116;28;20198;-69
2022/09/06 05:16:11;;;;;;;0.60;0.60;;;18.30;99.90;19.50;101284.00;;;;4975612;28;20186;-69
2022/09/06 05:18:54;;;;;;;0.70;0.70;;;18.40;99.90;19.30;101280.00;;;;4974213;28;20270;-69
2022/09/06 05:21:21;;;;;;;0.60;0.60;;;18.30;99.90;19.30;101284.00;;;;4957073;28;20200;-69
2022/09/06 05:23:50;;;;;;;0.60;0.60;;;18.30;99.90;19.10;101278.00;;;;4973488;28;20183;-69
2022/09/06 05:26:33;;;;;;;0.60;0.60;;;18.20;99.90;19.30;101275.00;;;;4957704;28;20288;-69
2022/09/06 05:29:16;;;;;;;0.60;0.60;;;18.10;99.90;19.10;101244.00;;;;4974762;28;20183;-69
2022/09/06 05:31:42;;;;;;;0.60;0.60;;;18.30;99.90;19.10;101274.00;;;;4973679;28;20216;-69
2022/09/06 05:34:12;;;;;;;0.60;0.60;;;18.20;99.90;19.10;101263.00;;;;4957743;28;20186;-69
2022/09/06 05:36:44;;;;;;;1.00;1.00;;;18.20;99.90;19.20;101250.00;;;;4990046;28;20192;-69
2022/09/06 05:39:20;;;;;;;0.60;0.60;;;18.20;99.90;19.60;101264.00;;;;4993073;28;20182;-70
2022/09/06 05:41:46;;;;;;;1.67;1.57;;;18.40;99.90;19.50;101262.00;;;;4992393;28;20235;-69
2022/09/06 05:44:17;;;;;;;0.80;0.80;;;18.50;99.90;19.40;101257.00;;;;4992706;28;20623;-69
2022/09/06 05:46:44;;;;;;;1.17;1.17;;;18.30;99.90;19.50;101252.00;;;;5009704;28;20216;-69
2022/09/06 05:49:12;;;;;;;1.37;1.37;;;18.40;99.90;19.50;101264.00;;;;4992791;28;20663;-69
2022/09/06 05:51:39;;;;;;;0.80;0.80;;;18.50;99.90;19.50;101245.00;;;;4992810;28;20680;-69
2022/09/06 05:54:12;;;;;;;1.13;1.13;;;18.50;99.90;19.20;101269.00;;;;4992899;28;20269;-69
2022/09/06 05:56:47;;;;;;;1.07;1.07;;;18.40;99.90;19.20;101265.00;;;;4993147;28;20181;-69
2022/09/06 05:59:31;;;;;;;2.20;1.07;;;18.40;99.90;19.50;101238.00;;;;4992879;28;20613;-69
2022/09/06 06:02:15;;;;;;;0.57;0.57;;;18.60;99.90;19.80;101261.00;;;;4992096;28;20198;-69
2022/09/06 06:05:04;;;;;;;0.70;0.70;;;18.80;99.90;20.60;101221.00;;;;4992510;28;20281;-69
2022/09/06 06:07:49;;;;;;;0.70;0.70;;;19.30;99.90;20.60;101254.00;;;;4978459;28;20546;-69
2022/09/06 06:10:17;;;;;;;0.50;0.50;;;19.70;99.90;21.40;101258.00;;;;4993896;28;20190;-69
2022/09/06 06:13:03;;;;;;;0.60;0.60;;;20.20;99.90;22.40;101206.00;;;;4992808;28;20218;-69
2022/09/06 06:15:39;;;;;;;0.80;0.80;;;20.90;99.90;22.10;101238.00;;;;4992681;28;20216;-69
2022/09/06 06:18:07;;;;;;;0.30;0.30;;;21.30;99.90;22.40;101235.00;;;;4976462;28;20179;-69
2022/09/06 06:20:40;;;;;;;0.30;0.30;;;21.60;99.90;22.70;101234.00;;;;4976585;28;20248;-69
2022/09/06 06:23:16;;;;;;;0.20;0.20;;;21.80;99.90;23.10;101234.00;;;;4976415;28;20180;-69
2022/09/06 06:26:08;;;;;;;0.20;0.20;;;22.00;99.90;24.00;101241.00;;;;4992354;28;20647;-69
2022/09/06 06:28:47;;;;;;;0.63;0.63;;;22.50;99.90;23.80;101237.00;;;;4975932;28;20198;-70
2022/09/06 06:31:21;;;;;;;0.40;0.40;;;23.10;99.90;22.50;101191.00;;;;4976259;28;20180;-69
2022/09/06 06:34:03;;;;;;;0.30;0.30;;;22.50;99.90;23.70;101234.00;;;;4976820;28;20674;-69
2022/09/06 06:36:37;;;;;;;0.20;0.20;;;22.70;99.90;24.00;101242.00;;;;4972827;28;20729;-69
2022/09/06 06:39:13;;;;;;;0.50;0.50;;;23.00;99.90;25.00;101259.00;;;;4972812;28;20192;-69
2022/09/06 06:43:00;;;;;;;0.20;0.20;;;23.70;99.90;24.10;101253.00;;;;4972956;28;20263;-69
2022/09/06 06:45:55;;;;;;;0.20;0.20;;;23.40;99.90;24.30;101270.00;;;;4969270;28;20197;-70
2022/09/06 06:48:48;;;;;;;0.20;0.20;;;23.90;99.90;22.80;101220.00;;;;4973295;28;20188;-70
2022/09/06 06:51:38;;;;;;;0.70;0.70;;;23.20;99.90;23.10;101262.00;;;;4973388;28;20188;-70
2022/09/06 06:54:40;;;;;;;0.20;0.20;;;22.90;99.90;23.50;101263.00;;;;4983928;28;20632;-70
2022/09/06 06:57:09;;;;;;;0.52;0.52;;;23.00;99.90;23.10;101242.00;;;;5000141;28;20199;-70
2022/09/06 06:59:38;;;;;;;0.40;0.40;;;23.00;99.90;22.70;101261.00;;;;4976892;28;20655;-70
2022/09/06 07:02:09;;;;;;;2.00;1.13;;;22.80;99.90;21.60;101247.00;;;;4977959;28;20195;-70
2022/09/06 07:04:38;;;;;;;0.47;0.45;;;22.00;99.90;22.70;101271.00;;;;4976344;28;20183;-70
2022/09/06 07:07:07;;;;;;;0.38;0.38;;;22.20;99.90;22.90;101258.00;;;;4993358;28;20192;-70
2022/09/06 07:09:40;;;;;;;0.50;0.50;;;22.40;99.90;22.80;101252.00;;;;4992963;28;20207;-69
2022/09/06 07:12:14;;;;;;;0.30;0.30;;;22.40;99.90;23.10;101243.00;;;;4992113;28;20209;-62
2022/09/06 07:14:51;;;;;;;0.57;0.57;;;22.50;99.90;23.70;101249.00;;;;4997008;28;20184;-65
2022/09/06 07:17:22;;;;;;;0.20;0.20;;;22.90;99.90;22.40;101238.00;;;;4997212;28;20244;-64
2022/09/06 07:19:57;;;;;;;0.30;0.30;;;22.50;99.90;22.90;101248.00;;;;4995540;28;20188;-64
2022/09/06 07:22:23;;;;;;;0.77;0.77;;;22.50;99.90;23.00;101246.00;;;;4995967;28;20195;-64
2022/09/06 07:24:57;;;;;;;0.20;0.20;;;22.60;99.90;22.60;101241.00;;;;4995332;28;20192;-64
2022/09/06 07:27:23;;;;;;;0.50;0.50;;;22.50;99.90;23.00;101245.00;;;;4995735;28;20290;-64
2022/09/06 07:29:55;;;;;;;0.25;0.25;;;22.80;99.90;22.70;101254.00;;;;4995599;28;20188;-65
2022/09/06 07:32:57;;;;;;;0.20;0.20;;;22.60;99.90;23.10;101235.00;;;;4994931;28;20216;-64
2022/09/06 07:35:33;;;;;;;0.10;0.10;;;22.50;99.90;23.80;101252.00;;;;4977540;28;20251;-64
2022/09/06 07:38:06;;;;;;;0.10;0.10;;;23.10;99.90;24.50;101259.00;;;;4996447;28;20216;-65
2022/09/06 07:40:55;;;;;;;0.30;0.30;;;23.70;99.90;24.50;101256.00;;;;4976144;28;20256;-65
2022/09/06 07:44:04;;;;;;;0.65;0.65;;;23.90;99.90;24.50;101264.00;;;;4975098;28;20185;-65
2022/09/06 07:46:44;;;;;;;2.17;0.73;;;23.80;99.90;22.60;101259.00;;;;4975210;28;20173;-66
2022/09/06 07:49:29;;;;;;;0.80;0.80;;;23.00;99.90;23.00;101219.00;;;;4975466;28;20247;-66
2022/09/06 07:52:26;;;;;;;0.25;0.25;;;23.00;99.90;23.40;101260.00;;;;4979090;28;20733;-66
2022/09/06 07:55:03;;;;;;;0.68;0.68;;;23.10;99.90;22.60;101261.00;;;;4995092;28;20200;-66
2022/09/06 07:57:58;;;;;;;0.50;0.50;;;22.90;99.90;22.50;101254.00;;;;4991141;28;20219;-66
2022/09/06 08:00:43;;;;;;;0.43;0.43;;;22.50;99.90;24.30;101273.00;;;;4996211;28;20184;-66
2022/09/06 08:03:34;;;;;;;0.10;0.10;;;23.20;99.90;24.80;101278.00;;;;4995046;28;20217;-63
2022/09/06 08:06:33;;;;;;;0.20;0.20;;;24.20;99.90;23.80;101249.00;;;;4985138;28;20210;-66
2022/09/06 08:09:57;;;;;;;0.30;0.30;;;23.70;99.90;26.40;101292.00;;;;4986320;28;20200;-65
2022/09/06 08:12:42;;;;;;;0.10;0.10;;;24.90;99.90;25.30;101299.00;;;;4993625;28;20208;-64
2022/09/06 08:15:21;;;;;;;0.10;0.10;;;25.00;99.90;25.60;101276.00;;;;4974766;28;20161;-64
2022/09/06 08:18:13;;;;;;;0.65;0.65;;;24.90;99.90;24.90;101306.00;;;;4995775;28;20695;-64
2022/09/06 08:21:11;;;;;;;0.10;0.10;;;24.70;99.90;26.60;101333.00;;;;4979718;28;20176;-64
2022/09/06 08:24:28;;;;;;;0.10;0.10;;;25.50;99.90;24.80;101300.00;;;;4964895;28;20188;-64
2022/09/06 08:26:59;;;;;;;0.10;0.10;;;25.00;99.90;25.90;101323.00;;;;4992289;28;20207;-65
2022/09/06 08:29:47;;;;;;;0.55;0.50;;;25.20;99.90;25.90;101342.00;;;;4994426;28;20191;-64
2022/09/06 08:32:18;;;;;;;0.68;0.68;;;25.50;99.90;27.30;101372.00;;;;4994516;28;20200;-65
2022/09/06 08:34:44;;;;;;;0.10;0.10;;;26.00;99.90;28.40;101391.00;;;;4978097;28;20190;-64
2022/09/06 08:37:12;;;;;;;0.20;0.20;;;26.90;99.90;28.50;101413.00;;;;4994506;28;20192;-65
2022/09/06 08:39:46;;;;;;;0.10;0.10;;;27.40;99.90;29.40;101420.00;;;;4995269;28;20543;-65
2022/09/06 08:42:17;;;;;;;2.03;1.30;;;27.90;99.90;25.20;101320.00;;;;4992419;28;20655;-65
2022/09/06 08:45:18;;;;;;;0.77;0.65;;;25.80;99.90;25.30;101342.00;;;;4993792;28;20219;-64
2022/09/06 08:48:06;;;;;;;0.30;0.30;;;25.40;99.90;24.80;101329.00;;;;4992485;28;20255;-65
2022/09/06 08:51:20;;;;;;;1.08;1.08;;;24.90;99.90;26.40;101339.00;;;;4993953;28;20537;-65
2022/09/06 08:53:59;;;;;;;0.10;0.10;;;25.20;99.90;26.00;101360.00;;;;4995119;28;20195;-64
2022/09/06 08:57:14;;;;;;;0.70;0.70;;;25.50;99.90;26.20;101365.00;;;;4994107;28;20279;-64
2022/09/06 08:59:43;;;;;;;0.40;0.40;;;25.70;99.90;27.30;101370.00;;;;4994194;28;20177;-64
2022/09/06 09:02:15;;;;;;;0.10;0.10;;;25.90;99.90;28.50;101403.00;;;;4994126;28;20241;-64
2022/09/06 09:05:13;;;;;;;0.40;0.40;;;26.70;99.90;26.90;101387.00;;;;4993747;28;20263;-65
2022/09/06 09:08:05;;;;;;;0.65;0.65;;;26.50;99.90;27.00;101383.00;;;;4992371;28;20192;-65
2022/09/06 09:11:12;;;;;;;0.13;0.13;;;26.60;99.90;25.30;101329.00;;;;4991945;28;20215;-67
2022/09/06 09:14:21;;;;;;;0.50;0.50;;;25.10;99.90;24.30;101313.00;;;;4994264;28;20571;-67
2022/09/06 09:17:23;;;;;;;2.20;1.60;;;24.40;99.90;24.30;101314.00;;;;4991691;28;20246;-67
2022/09/06 09:20:32;;;;;;;0.52;0.52;;;24.20;99.90;25.50;101306.00;;;;4979083;28;20262;-67
2022/09/06 09:23:41;;;;;;;0.10;0.10;;;24.30;99.90;27.60;101339.00;;;;5000087;28;20216;-64
2022/09/06 09:26:53;;;;;;;0.10;0.10;;;25.70;99.90;28.50;101387.00;;;;4974995;28;20204;-65
2022/09/06 09:30:17;;;;;;;6.32;1.02;;;26.90;99.90;28.10;101369.00;;;;4974875;28;20162;-65
2022/09/06 09:33:23;;;;;;;0.77;0.77;;;27.40;99.90;26.70;101363.00;;;;4974538;28;20566;-66
2022/09/06 09:36:29;;;;;;;0.13;0.13;;;26.50;99.90;26.50;101373.00;;;;4966291;28;20191;-66
2022/09/06 09:39:19;;;;;;;3.70;0.70;;;26.00;99.90;27.50;101385.00;;;;4990370;28;20195;-66
2022/09/06 09:42:27;;;;;;;0.10;0.10;;;26.70;99.90;28.00;101405.00;;;;4953564;29;20196;-66
2022/09/06 09:45:20;;;;;;;0.98;0.70;;;26.90;99.90;28.40;101384.00;;;;4952862;29;20213;-66
2022/09/06 09:48:58;;;;;;;1.63;0.80;;;27.10;99.90;28.60;101428.00;;;;4952557;29;20282;-66
2022/09/06 09:52:22;;;;;;;3.67;1.45;;;27.60;99.90;26.10;101401.00;;;;4938870;29;20201;-66
2022/09/06 09:55:13;;;;;;;2.83;1.20;;;26.50;99.90;27.40;101424.00;;;;4982623;28;20271;-64
2022/09/06 09:58:21;;;;;;;0.10;0.10;;;26.40;99.90;28.50;101440.00;;;;4973714;28;20259;-65
2022/09/06 10:01:24;;;;;;;1.27;1.10;;;27.20;99.90;28.50;101454.00;;;;4983452;28;20272;-65
2022/09/06 10:04:27;;;;;;;3.65;3.35;;;27.80;99.90;26.70;101422.00;;;;4990192;28;20290;-64
2022/09/06 10:07:19;;;;;;;1.60;0.50;;;26.40;99.90;26.20;101428.00;;;;4987681;28;20634;-64
2022/09/06 10:10:10;;;;;;;0.90;0.73;;;25.90;99.90;27.30;101452.00;;;;4987399;28;20212;-64
2022/09/06 10:12:43;;;;;;;0.55;0.43;;;26.20;99.90;26.10;101425.00;;;;4973639;28;20208;-65
2022/09/06 10:15:35;;;;;;;0.77;0.77;;;25.70;99.90;25.40;101415.00;;;;4979585;28;21516;-64
2022/09/06 10:18:01;;;;;;;0.20;0.20;;;25.20;99.90;27.10;101435.00;;;;5005181;28;20180;-65
2022/09/06 10:20:47;;;;;;;1.52;1.38;;;25.70;99.90;26.00;101442.00;;;;5012439;28;20171;-64
2022/09/06 10:34:10;;;;;;;1.10;0.85;;;26.20;99.90;27.10;101438.00;;;;5104131;27;20993;-68
2022/09/06 10:36:49;;;;;;;0.47;0.47;;;26.60;99.90;26.70;101401.00;;;;5081528;28;20216;-68
2022/09/06 10:39:52;;;;;;;0.25;0.25;;;26.30;99.90;28.10;101451.00;;;;5072150;28;20179;-68
2022/09/06 10:42:21;;;;;;;1.00;0.77;;;26.80;99.90;27.40;101434.00;;;;5089404;28;20177;-70
2022/09/06 10:45:18;;;;;;;0.60;0.60;;;26.90;99.90;28.90;101455.00;;;;5089099;28;20180;-69
2022/09/06 10:48:01;;;;;;;1.25;1.15;;;27.30;99.90;29.50;101452.00;;;;5089724;28;20321;-70
2022/09/06 10:50:51;;;;;;;0.45;0.45;;;28.20;99.90;29.90;101423.00;;;;5071234;28;20181;-69
2022/09/06 10:54:08;;;;;;;0.20;0.20;;;28.60;99.90;29.80;101456.00;;;;5090482;28;20295;-69
2022/09/06 10:56:42;;;;;;;1.08;0.68;;;28.90;99.90;30.80;101467.00;;;;5028172;28;20314;-68
2022/09/06 10:59:32;;;;;;;1.27;0.35;;;29.50;99.90;27.90;101452.00;;;;5028032;28;20187;-68
2022/09/06 11:02:36;;;;;;;1.00;0.73;;;28.20;99.90;28.20;101442.00;;;;5068453;28;20263;-68
2022/09/06 11:05:10;;;;;;;0.25;0.25;;;27.70;99.90;28.60;101419.00;;;;5050179;28;20170;-69
2022/09/06 11:07:43;;;;;;;0.55;0.52;;;27.80;99.90;30.00;101450.00;;;;5068711;28;20263;-69
2022/09/06 11:10:17;;;;;;;0.10;0.10;;;28.50;99.90;30.10;101460.00;;;;5085792;28;20177;-69
2022/09/06 11:13:05;;;;;;;0.10;0.10;;;28.90;99.90;30.70;101421.00;;;;5076666;28;20210;-69
2022/09/06 11:16:18;;;;;;;0.20;0.20;;;29.30;99.90;31.40;101454.00;;;;5067831;28;20698;-69
2022/09/06 11:18:59;;;;;;;0.10;0.10;;;29.80;99.90;31.30;101434.00;;;;5024835;28;20215;-69
2022/09/06 11:21:54;;;;;;;0.40;0.40;;;30.10;99.90;30.20;101472.00;;;;5025481;28;20202;-69
2022/09/06 11:24:32;;;;;;;0.43;0.43;;;29.90;99.90;31.80;101470.00;;;;5075895;28;20204;-69
2022/09/06 11:27:13;;;;;;;2.65;0.85;;;30.10;99.90;28.90;101434.00;;;;5088488;28;20184;-69
2022/09/06 11:29:55;;;;;;;1.02;0.47;;;28.70;99.90;28.60;101465.00;;;;5088782;28;20616;-69
2022/09/06 11:32:42;;;;;;;0.30;0.30;;;28.10;99.90;27.50;101462.00;;;;5072119;28;20205;-69
2022/09/06 11:35:31;;;;;;;0.35;0.35;;;27.30;99.90;28.60;101459.00;;;;5089669;28;20212;-69
2022/09/06 11:38:22;;;;;;;0.10;0.10;;;27.20;99.90;30.50;101464.00;;;;5088736;28;20552;-69
2022/09/06 11:41:17;;;;;;;0.20;0.20;;;28.40;99.90;30.10;101464.00;;;;5087672;28;20694;-69
2022/09/06 11:43:55;;;;;;;0.10;0.10;;;29.10;99.90;30.60;101477.00;;;;5078190;28;20185;-69
2022/09/06 11:46:36;;;;;;;0.10;0.10;;;29.10;99.90;31.90;101477.00;;;;5072310;28;20547;-69
2022/09/06 11:49:28;;;;;;;0.77;0.40;;;29.90;99.90;29.30;101476.00;;;;5073726;28;20178;-69
2022/09/06 11:52:47;;;;;;;0.10;0.10;;;29.10;99.90;30.60;101471.00;;;;5057820;28;20209;-69
2022/09/06 11:55:17;;;;;;;0.20;0.20;;;29.10;99.90;31.30;101476.00;;;;5074259;28;20213;-70
2022/09/06 11:58:22;;;;;;;0.10;0.10;;;29.60;99.90;30.60;101472.00;;;;5073623;28;20177;-67
2022/09/06 12:01:19;;;;;;;0.10;0.10;;;29.50;99.90;31.80;101476.00;;;;5040620;28;20188;-67
2022/09/06 12:03:51;;;;;;;0.20;0.20;;;29.90;99.90;32.10;101481.00;;;;4993389;28;20236;-67
2022/09/06 12:06:31;;;;;;;2.30;2.20;;;30.30;99.90;31.90;101485.00;;;;4993492;28;20192;-67
2022/09/06 12:09:26;;;;;;;0.10;0.10;;;30.40;99.90;30.70;101477.00;;;;5068182;28;20193;-68
2022/09/06 12:12:04;;;;;;;0.22;0.22;;;29.50;99.90;30.20;101476.00;;;;5073102;28;20212;-68
2022/09/06 12:14:39;;;;;;;0.10;0.10;;;29.30;99.90;29.20;101464.00;;;;5074473;28;20239;-67